Weather observations for the past three days for
Yankton, Chan Gurney Municipal Airport
Imperial (Metric)
Date Time (cdt) Wind (mph) Vis. (mi.) Weather Sky Cond. Temperature (ºF) Relative Humidity Wind Chill (°F) Heat Index (°F) Pressure Precipitation (in)
Air Dwpt 6 hour altimeter (in) sea level (mb) 1 hr 3 hr 6 hr
Max. Min.
06 11:56 NW 13 G 18 10.00 Mostly Cloudy BKN070 51.1 19 28% 30.09 1020.8
06 10:56 NW 13 G 21 10.00 A Few Clouds FEW060 51.1 24.1 35% 30.09 1020.9
06 09:56 W 9 10.00 Fair CLR 46.9 25 42% 43 30.1 1021.3
06 08:56 NW 8 10.00 Fair CLR 41 26.1 55% 36 30.11 1021.6
06 07:56 NW 8 10.00 Fair CLR 37.9 27 65% 33 30.1 1021.3
06 06:56 W 3 10.00 Fair CLR 30.9 23 37 26.1 72% 30.08 1020.7
06 05:56 W 5 10.00 Fair CLR 30 23 75% 26 30.05 1019.9
06 04:56 W 10 10.00 Fair CLR 30 24.1 79% 22 30.04 1019.5
06 03:56 W 6 10.00 Fair CLR 30 23 75% 25 30.04 1019.3
06 02:56 W 9 10.00 Fair CLR 35.1 21.9 59% 29 30.03 1019.1
06 01:56 W 7 10.00 Fair CLR 33.1 23 66% 28 30.02 1018.7
06 00:56 NW 7 10.00 Fair CLR 36 23 51.1 34 59% 31 30.02 1018.7
05 23:56 NW 7 10.00 Fair CLR 36 23 59% 31 30 1018.1
05 22:56 Calm 10.00 Fair CLR 37 23 57% 30 1018.0
05 21:56 NW 6 10.00 Fair CLR 41 21.9 47% 38 29.99 1017.7
05 20:56 NW 8 10.00 A Few Clouds FEW080 43 21.9 43% 39 29.97 1016.9
05 19:56 N 12 10.00 Mostly Cloudy BKN080 48 21 34% 44 29.95 1016.0
05 18:56 NW 13 10.00 Overcast OVC080 51.1 21.9 54 50 32% 29.93 1015.6
05 17:56 NW 18 G 26 10.00 Mostly Cloudy BKN080 53.1 21 28% 29.92 1015.2
05 16:56 W 20 G 30 10.00 Partly Cloudy SCT075 53.1 19.9 27% 29.93 1015.4
05 15:56 NW 18 G 32 10.00 Mostly Cloudy BKN070 54 21 28% 29.94 1015.6
05 14:56 NW 20 G 26 10.00 Overcast OVC070 51.1 23 33% 29.95 1016.1
05 13:56 W 23 G 29 10.00 Mostly Cloudy and Breezy BKN070 50 21.9 33% 44 29.96 1016.2
05 12:56 NW 15 10.00 Overcast OVC070 50 23 51.1 33.1 35% 45 29.96 1016.3
05 11:56 NW 20 G 25 10.00 Mostly Cloudy BKN065 50 24.1 36% 44 29.97 1016.5
05 10:56 NW 15 10.00 Mostly Cloudy BKN065 48 23 37% 43 29.96 1016.3
05 09:56 NW 12 10.00 Fair CLR 44.1 27 51% 39 29.96 1016.3
05 08:56 NW 13 10.00 Fair CLR 41 28 60% 34 29.95 1015.9
05 07:56 NW 9 10.00 Fair CLR 39 30.9 73% 33 29.92 1015.0
05 06:56 NW 6 10.00 Fair CLR 33.1 28.9 44.1 32 85% 28 29.9 1014.3
05 05:56 W 9 10.00 Fair CLR 35.1 28.9 78% 29 29.88 1013.8
05 04:56 NW 10 10.00 Fair CLR 35.1 28.9 78% 28 29.87 1013.3
05 03:56 W 8 10.00 Fair CLR 39 28.9 67% 34 29.85 1012.6
05 02:56 NW 10 10.00 Fair CLR 37.9 30 73% 32 29.84 1011.9
05 01:56 NW 9 10.00 Fair CLR 43 30 60% 38 29.84 1011.7
05 00:56 NW 8 10.00 Fair CLR 43 30 55.9 43 60% 39 29.83 1011.5
04 23:56 NW 8 10.00 Fair CLR 46.9 32 56% 44 29.83 1011.4
04 22:56 NW 7 10.00 Fair CLR 48 32 54% 45 29.83 1011.3
04 21:56 NW 3 10.00 Fair CLR 50 30.9 48% 29.82 1010.9
04 20:56 N 5 10.00 Fair CLR 52 30 43% 29.79 1010.0
04 19:56 N 10 10.00 Fair CLR 54 28.9 38% 29.79 1010.1
04 18:56 NW 15 10.00 A Few Clouds FEW110 55.9 30 66 55 37% 29.79 1010.0
04 17:56 N 14 G 24 10.00 Overcast OVC100 55.9 30 37% 29.77 1009.4
04 16:56 NW 17 G 26 10.00 Overcast FEW047 BKN070 OVC095 55.9 30.9 39% 29.76 1009.1
04 15:56 NW 21 G 29 10.00 Overcast and Breezy BKN080 OVC120 59 30.9 35% 29.76 1008.8
04 14:56 NW 22 G 36 10.00 Fair and Breezy CLR 64.9 30.9 28% 29.73 1007.7
04 13:56 NW 21 G 32 10.00 Fair and Breezy CLR 64.9 30.9 28% 29.71 1007.0
04 12:56 NW 18 G 35 10.00 Fair CLR 64.9 30.9 64.9 52 28% 29.7 1006.8
04 11:56 NW 22 G 29 10.00 Fair and Breezy CLR 64.9 33.1 31% 29.69 1006.4
04 10:56 N 21 10.00 Fair and Breezy CLR 64 33.1 32% 29.66 1005.2
04 09:56 N 18 G 25 10.00 Fair CLR 63 39.9 43% 29.64 1004.4
04 08:56 NW 16 10.00 Fair CLR 60.1 45 58% 29.61 1003.5
04 07:56 W 14 G 18 10.00 Fair CLR 57.9 44.1 60% 29.59 1002.7
04 06:56 SW 9 10.00 Fair CLR 52 41 54 51.1 66% 29.56 1001.7
04 05:56 SW 9 10.00 Fair CLR 53.1 39 59% 29.58 1002.3
04 04:56 SW 6 10.00 Fair CLR 54 39 57% 29.59 1002.9
04 03:56 SW 8 10.00 Mostly Cloudy BKN100 54 39.9 59% 29.6 1003.3
04 02:56 SW 6 10.00 Fair CLR 52 41 66% 29.62 1004.0
04 01:56 S 5 10.00 Partly Cloudy SCT120 53.1 41 64% 29.64 1004.7
04 00:56 S 3 10.00 Fair CLR 52 39.9 72 50 64% 29.67 1005.6
03 23:56 SW 3 10.00 Fair CLR 55 39 55% 29.69 1006.3
03 22:56 Calm 10.00 Fair CLR 57 39 51% 29.71 1007.0
03 21:56 Calm 10.00 Fair CLR 57.9 37 46% 29.73 1007.8
03 20:56 SW 3 10.00 Fair CLR 64.9 37 36% 29.73 1007.8
03 19:56 W 9 10.00 Fair CLR 69.1 36 30% 29.74 1008.2
03 18:56 W 18 G 23 10.00 Fair CLR 72 33.1 73 69.1 24% 29.76 1008.7
03 17:56 W 13 10.00 A Few Clouds FEW090 73 36 26% 29.77 1009.0
03 16:56 W 10 10.00 Fair CLR 72 35.1 26% 29.79 1009.7
03 15:56 W 8 10.00 Fair CLR 72 36 27% 29.82 1010.8
03 14:56 W 8 G 18 10.00 Fair CLR 70 36 29% 29.85 1011.7
03 13:56 NW 12 10.00 Fair CLR 69.1 36 30% 29.87 1012.4
03 12:56 N 14 G 20 10.00 A Few Clouds FEW070 69.1 37.9 69.1 46.9 32% 29.89 1013.0
Date Time (cdt) Wind (mph) Vis. (mi.) Weather Sky Cond. Air Dwpt Max. Min. Relative Humidity Wind Chill (°F) Heat Index (°F) altimeter (in) sea level (mb) 1 hr 3 hr 6 hr
6 hour
Temperature (ºF) Pressure Precipitation (in)